Campeche Bay — P3ZF9 — position and weather

sailwx.info

Track history (hours):
 
Tides and Currents Weather Stations Pressure Air Temp Water Temp Dewpoint Dewpoint Depression Visibility Wind Speed Wind Dir Waves Ship Positions

Campeche Bay

Last reported at 2017-Feb-24 10:33 UTC. Time now 2017-Feb-27 22:39 UTC.
Position N 29°30' W 094°52'.

Length 90 m; draft 3.4 m.

Type: Cargo ship. MMSI: 209641000.

Date/timePositionNaut miles runAvg speedWind from/ knotsBaromVisibWave heightAir tempDewpointWater temp
2017-Feb-24 10:33N 29°30' W 094°52'9 9.5
2017-Feb-24 09:33N 29°38' W 094°58'8 7.8
2017-Feb-24 08:33N 29°44' W 095°03'3 1.5
2017-Feb-24 06:32N 29°45' W 095°07'0 0.0
2017-Feb-24 02:31N 29°45' W 095°07'0 0.0
2017-Feb-24 00:24N 29°45' W 095°07'0 0.0
2017-Feb-23 23:33N 29°45' W 095°07'0 0.0
2017-Feb-23 22:33N 29°45' W 095°07'0 0.0
2017-Feb-23 21:33N 29°45' W 095°07'0 0.0
2017-Feb-23 20:33N 29°45' W 095°07'0 0.0
2017-Feb-23 19:31N 29°45' W 095°07'0 0.0
2017-Feb-23 18:31N 29°45' W 095°07'0 0.0
2017-Feb-23 17:31N 29°45' W 095°07'2 2.1
2017-Feb-23 16:33N 29°46' W 095°05'8 8.1
2017-Feb-23 15:33N 29°40' W 094°58'10 9.8
2017-Feb-23 14:33N 29°31' W 094°53'9 9.1
2017-Feb-23 13:32N 29°23' W 094°48'9 7.7
2017-Feb-23 12:22N 29°19' W 094°39'7 8.2
2017-Feb-23 11:33N 29°16' W 094°32'8 7.5
2017-Feb-23 10:33N 29°11' W 094°25'9 8.8
2017-Feb-23 09:33N 29°06' W 094°17'  
2017-Feb-17 04:33N 29°30' W 094°52'10 9.6
2017-Feb-17 03:33N 29°39' W 094°58'9 8.5
2017-Feb-17 02:34N 29°45' W 095°04'2 0.6
2017-Feb-16 22:32N 29°45' W 095°07'0 0.0
2017-Feb-16 21:17N 29°45' W 095°07'0 0.0
2017-Feb-16 20:25N 29°45' W 095°07'0 0.0
2017-Feb-16 19:32N 29°45' W 095°07'0 0.0
2017-Feb-16 18:32N 29°45' W 095°07'2 2.5
2017-Feb-16 17:33N 29°45' W 095°04'9 9.3
2017-Feb-16 16:33N 29°38' W 094°58'1010.5
2017-Feb-16 15:33N 29°29' W 094°51'  
Track history (hours):
 
Tides and Currents Weather Stations Pressure Air Temp Water Temp Dewpoint Dewpoint Depression Visibility Wind Speed Wind Dir Waves Ship Positions

Campeche Bay

Last reported at 2017-Feb-24 10:33 UTC. Time now 2017-Feb-27 22:39 UTC.
Position N 29°30' W 094°52'.

Length 90 m; draft 3.4 m.

Type: Cargo ship. MMSI: 209641000.

Date/timePositionNaut miles runAvg speedWind from/ knotsBaromVisibWave heightAir tempDewpointWater temp
2017-Feb-24 10:33N 29°30' W 094°52'9 9.5
2017-Feb-24 09:33N 29°38' W 094°58'8 7.8
2017-Feb-24 08:33N 29°44' W 095°03'3 1.5
2017-Feb-24 06:32N 29°45' W 095°07'0 0.0
2017-Feb-24 02:31N 29°45' W 095°07'0 0.0
2017-Feb-24 00:24N 29°45' W 095°07'0 0.0
2017-Feb-23 23:33N 29°45' W 095°07'0 0.0
2017-Feb-23 22:33N 29°45' W 095°07'0 0.0
2017-Feb-23 21:33N 29°45' W 095°07'0 0.0
2017-Feb-23 20:33N 29°45' W 095°07'0 0.0
2017-Feb-23 19:31N 29°45' W 095°07'0 0.0
2017-Feb-23 18:31N 29°45' W 095°07'0 0.0
2017-Feb-23 17:31N 29°45' W 095°07'2 2.1
2017-Feb-23 16:33N 29°46' W 095°05'8 8.1
2017-Feb-23 15:33N 29°40' W 094°58'10 9.8
2017-Feb-23 14:33N 29°31' W 094°53'9 9.1
2017-Feb-23 13:32N 29°23' W 094°48'9 7.7
2017-Feb-23 12:22N 29°19' W 094°39'7 8.2
2017-Feb-23 11:33N 29°16' W 094°32'8 7.5
2017-Feb-23 10:33N 29°11' W 094°25'9 8.8
2017-Feb-23 09:33N 29°06' W 094°17'  
2017-Feb-17 04:33N 29°30' W 094°52'10 9.6
2017-Feb-17 03:33N 29°39' W 094°58'9 8.5
2017-Feb-17 02:34N 29°45' W 095°04'2 0.6
2017-Feb-16 22:32N 29°45' W 095°07'0 0.0
2017-Feb-16 21:17N 29°45' W 095°07'0 0.0
2017-Feb-16 20:25N 29°45' W 095°07'0 0.0
2017-Feb-16 19:32N 29°45' W 095°07'0 0.0
2017-Feb-16 18:32N 29°45' W 095°07'2 2.5
2017-Feb-16 17:33N 29°45' W 095°04'9 9.3
2017-Feb-16 16:33N 29°38' W 094°58'1010.5
2017-Feb-16 15:33N 29°29' W 094°51'  

Dump ship's entire track history